Time;durP1;ratioP1;P1;durP2;ratioP2;P2;SDS_P1;SDS_P2;PMS_P1;PMS_P2;Temp;Humidity;BMP_temperature;BMP_pressure;BME280_temperature;BME280_humidity;BME280_pressure;Samples;Min_cycle;Max_cycle;Signal;HPM_P1;HPM_P2
2023/04/15 00:00:23;;;;;;;6.53;3.80;;;;;;;;;;4969474;28;20212;-41
2023/04/15 00:02:48;;;;;;;6.45;3.80;;;8.20;99.90;;;;;;4969270;28;20193;-41
2023/04/15 00:05:14;;;;;;;6.40;3.40;;;8.10;99.90;;;;;;4985280;28;20208;-41
2023/04/15 00:07:40;;;;;;;6.10;3.30;;;8.20;99.90;;;;;;4989021;28;20515;-41
2023/04/15 00:10:06;;;;;;;4.72;3.03;;;8.20;99.90;;;;;;4989029;28;20238;-41
2023/04/15 00:12:32;;;;;;;3.85;2.65;;;8.20;99.90;;;;;;4989045;28;20169;-41
2023/04/15 00:14:57;;;;;;;8.82;3.20;;;8.20;99.90;;;;;;4988898;28;20267;-41
2023/04/15 00:17:23;;;;;;;7.65;3.63;;;8.10;99.90;;;;;;4988800;28;20173;-41
2023/04/15 00:19:49;;;;;;;8.25;3.67;;;7.90;99.90;;;;;;4988657;28;20161;-42
2023/04/15 00:22:14;;;;;;;6.90;3.15;;;8.00;99.90;;;;;;4988728;28;20641;-43
2023/04/15 00:24:41;;;;;;;8.95;4.35;;;8.00;99.90;;;;;;4988565;28;20283;-43
2023/04/15 00:27:07;;;;;;;7.07;3.50;;;7.80;99.90;;;;;;4988743;28;20217;-41
2023/04/15 00:29:33;;;;;;;5.97;3.40;;;;;;;;;;4989191;28;20168;-41
2023/04/15 00:31:59;;;;;;;7.20;3.50;;;8.00;99.90;;;;;;4988882;28;20210;-41
2023/04/15 00:34:26;;;;;;;6.00;3.45;;;7.80;99.90;;;;;;4978684;28;20216;-40
2023/04/15 00:36:52;;;;;;;5.05;4.03;;;8.00;99.90;;;;;;4969314;28;20181;-41
2023/04/15 00:39:18;;;;;;;5.95;3.15;;;;;;;;;;4969237;28;20642;-40
2023/04/15 00:41:45;;;;;;;4.03;3.33;;;7.90;99.90;;;;;;4968817;28;20633;-40
2023/04/15 00:44:10;;;;;;;7.95;3.63;;;8.00;99.90;;;;;;4969029;28;20209;-41
2023/04/15 00:46:37;;;;;;;7.47;3.58;;;;;;;;;;4969337;28;20173;-41
2023/04/15 00:49:06;;;;;;;7.65;3.40;;;7.90;99.90;;;;;;4970716;28;20172;-40
2023/04/15 00:51:34;;;;;;;5.72;3.25;;;;;;;;;;4972778;28;20180;-41
2023/04/15 00:54:00;;;;;;;4.18;3.22;;;;;;;;;;4972400;28;20675;-42
2023/04/15 00:56:28;;;;;;;5.72;3.30;;;7.80;99.90;;;;;;4972305;28;20184;-41
2023/04/15 00:58:54;;;;;;;6.50;3.30;;;7.70;99.90;;;;;;4972349;28;20645;-41
2023/04/15 01:01:24;;;;;;;6.22;3.78;;;7.80;99.90;;;;;;4972387;28;20169;-40
2023/04/15 01:03:51;;;;;;;8.13;3.97;;;;;;;;;;4976800;28;20568;-40
2023/04/15 01:06:17;;;;;;;6.65;3.95;;;7.80;99.90;;;;;;4991705;28;20204;-41
2023/04/15 01:08:44;;;;;;;5.13;3.00;;;7.80;99.90;;;;;;4991575;28;20619;-41
2023/04/15 01:11:11;;;;;;;7.45;3.40;;;7.70;99.90;;;;;;4991809;28;20215;-41
2023/04/15 01:13:37;;;;;;;5.20;3.03;;;7.70;99.90;;;;;;4991495;28;20227;-41
2023/04/15 01:16:03;;;;;;;5.15;2.92;;;8.00;99.90;;;;;;4991780;28;20181;-41
2023/04/15 01:18:30;;;;;;;5.90;2.97;;;7.60;99.90;;;;;;4991616;28;20287;-40
2023/04/15 01:20:57;;;;;;;4.05;3.15;;;7.50;99.90;;;;;;4991613;28;20220;-41
2023/04/15 01:23:22;;;;;;;6.43;3.33;;;;;;;;;;4991526;28;20254;-41
2023/04/15 01:25:49;;;;;;;5.22;2.85;;;7.30;99.90;;;;;;4991344;28;20633;-41
2023/04/15 01:28:15;;;;;;;3.40;3.00;;;7.70;99.90;;;;;;4991313;28;20165;-41
2023/04/15 01:30:42;;;;;;;6.80;3.30;;;;;;;;;;4991272;28;20180;-41
2023/04/15 01:33:08;;;;;;;7.35;3.20;;;;;;;;;;4989819;28;20311;-41
2023/04/15 01:35:33;;;;;;;6.35;3.80;;;7.40;99.90;;;;;;4971008;28;20260;-41
2023/04/15 01:38:05;;;;;;;4.25;3.25;;;7.50;99.90;;;;;;4971781;28;20177;-42
2023/04/15 01:40:31;;;;;;;5.03;3.63;;;7.50;99.90;;;;;;4971941;28;20180;-41
2023/04/15 01:42:56;;;;;;;5.57;3.10;;;7.60;99.90;;;;;;4971602;28;20261;-41
2023/04/15 01:45:22;;;;;;;4.22;3.10;;;7.50;99.90;;;;;;4971564;28;20205;-41
2023/04/15 01:47:48;;;;;;;5.22;3.33;;;7.40;99.90;;;;;;4971432;28;20211;-41
2023/04/15 01:50:14;;;;;;;5.10;2.70;;;7.60;99.90;;;;;;4971501;28;20165;-41
2023/04/15 01:52:39;;;;;;;5.97;2.70;;;7.20;99.90;;;;;;4971735;28;20193;-40
2023/04/15 01:55:07;;;;;;;4.45;2.90;;;7.20;99.90;;;;;;4971869;28;20633;-41
2023/04/15 01:57:33;;;;;;;4.25;2.40;;;7.30;99.90;;;;;;4971701;28;20173;-41
2023/04/15 01:59:58;;;;;;;4.75;2.58;;;7.30;99.90;;;;;;4971418;28;20177;-40
2023/04/15 02:02:24;;;;;;;7.90;2.78;;;;;;;;;;4959624;28;20178;-43
2023/04/15 02:04:50;;;;;;;3.85;2.38;;;7.10;99.90;;;;;;4967290;28;20211;-42
2023/04/15 02:07:16;;;;;;;4.15;2.85;;;7.10;99.90;;;;;;4970065;28;20170;-41
2023/04/15 02:09:42;;;;;;;4.85;2.92;;;7.10;99.90;;;;;;4971122;28;20620;-41
2023/04/15 02:12:08;;;;;;;5.85;3.03;;;6.90;99.90;;;;;;4970940;28;20174;-41
2023/04/15 02:14:33;;;;;;;5.43;2.80;;;7.10;99.90;;;;;;4971618;28;20177;-40
2023/04/15 02:17:06;;;;;;;6.95;3.10;;;7.10;99.90;;;;;;4971037;28;20170;-41
2023/04/15 02:19:32;;;;;;;5.13;3.13;;;7.00;99.90;;;;;;4971390;28;20177;-40
2023/04/15 02:21:58;;;;;;;7.38;3.33;;;;;;;;;;4971137;28;20223;-40
2023/04/15 02:24:25;;;;;;;5.78;3.17;;;7.00;99.90;;;;;;4969478;28;20533;-40
2023/04/15 02:26:51;;;;;;;4.07;2.33;;;;;;;;;;4970937;28;20176;-41
2023/04/15 02:29:16;;;;;;;2.95;2.65;;;;;;;;;;4970971;28;20166;-41
2023/04/15 02:31:43;;;;;;;4.55;2.60;;;;;;;;;;4977161;28;20181;-41
2023/04/15 02:34:09;;;;;;;9.73;2.83;;;6.90;99.90;;;;;;4990017;28;20203;-41
2023/04/15 02:36:35;;;;;;;3.60;2.70;;;6.90;99.90;;;;;;4990483;28;20726;-41
2023/04/15 02:39:00;;;;;;;6.38;3.08;;;6.80;99.90;;;;;;4990684;28;20197;-41
2023/04/15 02:41:27;;;;;;;6.28;2.95;;;6.90;99.90;;;;;;4990170;28;20169;-41
2023/04/15 02:43:53;;;;;;;5.60;2.95;;;6.90;99.90;;;;;;4990276;28;20566;-40
2023/04/15 02:46:18;;;;;;;8.02;3.22;;;6.90;99.90;;;;;;4989995;28;20168;-41
2023/04/15 02:48:45;;;;;;;7.60;3.03;;;;;;;;;;4990170;28;20717;-41
2023/04/15 02:51:15;;;;;;;5.97;3.53;;;6.90;99.90;;;;;;4989920;28;20184;-41
2023/04/15 02:53:41;;;;;;;6.50;2.85;;;;;;;;;;5002984;28;20500;-41
2023/04/15 02:56:07;;;;;;;8.50;3.65;;;6.90;99.90;;;;;;5071942;28;20170;-41
2023/04/15 02:58:34;;;;;;;7.10;3.30;;;6.90;99.90;;;;;;5072563;28;20173;-41
2023/04/15 03:00:59;;;;;;;5.28;3.10;;;6.90;99.90;;;;;;5057752;28;20629;-40
2023/04/15 03:03:26;;;;;;;8.73;3.15;;;6.70;99.90;;;;;;4990130;28;20183;-41
2023/04/15 03:05:52;;;;;;;4.22;2.60;;;6.70;99.90;;;;;;4988553;28;20278;-41
2023/04/15 03:08:17;;;;;;;6.00;3.30;;;6.70;99.90;;;;;;4989594;28;20288;-41
2023/04/15 03:10:43;;;;;;;4.13;2.63;;;6.50;99.90;;;;;;4989511;28;20173;-41
2023/04/15 03:13:09;;;;;;;5.53;3.22;;;;;;;;;;4989231;28;20196;-41
2023/04/15 03:15:35;;;;;;;14.77;3.22;;;;;;;;;;4990048;28;20194;-41
2023/04/15 03:18:01;;;;;;;5.22;2.72;;;6.40;99.90;;;;;;4989895;28;20176;-41
2023/04/15 03:20:26;;;;;;;6.03;3.40;;;6.40;99.90;;;;;;4989709;28;20173;-41
2023/04/15 03:22:52;;;;;;;5.45;2.90;;;6.40;99.90;;;;;;4989606;28;20597;-41
2023/04/15 03:25:17;;;;;;;7.18;3.20;;;6.40;99.90;;;;;;4989664;28;20200;-41
2023/04/15 03:27:43;;;;;;;5.25;3.20;;;6.40;99.90;;;;;;4988201;28;20206;-41
2023/04/15 03:30:09;;;;;;;6.55;3.83;;;;;;;;;;4989555;28;20172;-40
2023/04/15 03:32:35;;;;;;;6.85;3.58;;;;;;;;;;4974123;28;20181;-41
2023/04/15 03:35:01;;;;;;;6.65;3.38;;;6.20;99.90;;;;;;4970362;28;20174;-41
2023/04/15 03:37:26;;;;;;;7.50;3.40;;;6.30;99.90;;;;;;4969889;28;20169;-40
2023/04/15 03:39:52;;;;;;;5.68;3.42;;;6.20;99.90;;;;;;4970019;28;20263;-41
2023/04/15 03:42:17;;;;;;;8.07;3.65;;;6.10;99.90;;;;;;4969841;28;20197;-41
2023/04/15 03:44:43;;;;;;;7.05;3.63;;;;;;;;;;4969794;28;20561;-40
2023/04/15 03:47:09;;;;;;;6.85;3.60;;;6.10;99.90;;;;;;4969786;28;20174;-40
2023/04/15 03:49:35;;;;;;;4.63;3.55;;;6.10;99.90;;;;;;4970112;28;20179;-41
2023/04/15 03:52:01;;;;;;;11.68;4.18;;;;;;;;;;4970267;28;20211;-40
2023/04/15 03:54:27;;;;;;;5.43;3.70;;;6.20;99.90;;;;;;4969711;28;20208;-41
2023/04/15 03:56:52;;;;;;;9.95;3.85;;;6.10;99.90;;;;;;4969572;28;20165;-41
2023/04/15 03:59:18;;;;;;;7.20;3.85;;;6.40;99.90;;;;;;4969648;28;20184;-41
2023/04/15 04:01:44;;;;;;;8.18;3.60;;;6.00;99.90;;;;;;4969412;28;20676;-41
2023/04/15 04:04:10;;;;;;;3.78;3.17;;;;;;;;;;4969770;28;20209;-41
2023/04/15 04:06:36;;;;;;;9.77;3.85;;;6.20;99.90;;;;;;4969857;28;20201;-41
2023/04/15 04:09:02;;;;;;;8.38;3.80;;;;;;;;;;4969803;28;20674;-41
2023/04/15 04:11:28;;;;;;;9.98;4.15;;;;;;;;;;4969677;28;20182;-41
2023/04/15 04:13:53;;;;;;;8.13;3.67;;;6.30;99.90;;;;;;4969450;28;20174;-41
2023/04/15 04:16:19;;;;;;;6.32;3.45;;;6.30;99.90;;;;;;4969296;28;20238;-42
2023/04/15 04:18:44;;;;;;;5.85;3.67;;;6.30;99.90;;;;;;4969429;28;20174;-41
2023/04/15 04:21:10;;;;;;;11.20;4.35;;;6.40;99.90;;;;;;4969387;28;20710;-41
2023/04/15 04:23:36;;;;;;;9.77;4.32;;;6.50;99.90;;;;;;4971610;28;20179;-41
2023/04/15 04:26:02;;;;;;;7.80;4.10;;;;;;;;;;4973262;28;20170;-41
2023/04/15 04:28:27;;;;;;;8.60;4.00;;;6.40;99.90;;;;;;4981105;28;20185;-41
2023/04/15 04:30:53;;;;;;;7.60;4.38;;;6.30;99.90;;;;;;4974475;28;20633;-41
2023/04/15 04:33:19;;;;;;;7.18;3.85;;;;;;;;;;4972887;28;20584;-41
2023/04/15 04:35:45;;;;;;;6.03;3.97;;;6.20;99.90;;;;;;4972852;28;20523;-41
2023/04/15 04:38:11;;;;;;;7.75;4.10;;;;;;;;;;4984517;28;20177;-40
2023/04/15 04:40:36;;;;;;;5.65;3.70;;;6.30;99.90;;;;;;4980490;28;20177;-41
2023/04/15 04:43:02;;;;;;;8.88;4.00;;;6.30;99.90;;;;;;4992629;28;20173;-41
2023/04/15 04:45:27;;;;;;;9.32;4.60;;;6.30;99.90;;;;;;4974759;28;20626;-41
2023/04/15 04:47:53;;;;;;;4.97;3.88;;;6.30;99.90;;;;;;4972292;28;20498;-41
2023/04/15 04:50:18;;;;;;;6.88;3.83;;;6.40;99.90;;;;;;4972239;28;20656;-41
2023/04/15 04:52:44;;;;;;;4.43;3.17;;;6.40;99.90;;;;;;4972448;28;20180;-41
2023/04/15 04:55:10;;;;;;;4.40;3.72;;;;;;;;;;4987621;28;20259;-41
2023/04/15 04:57:36;;;;;;;6.07;3.35;;;6.40;99.90;;;;;;4981374;28;20600;-41
2023/04/15 05:00:03;;;;;;;4.97;3.38;;;6.40;99.90;;;;;;4978596;28;20179;-41
2023/04/15 05:02:29;;;;;;;6.82;3.42;;;6.30;99.90;;;;;;4982744;28;20520;-41
2023/04/15 05:04:55;;;;;;;7.35;3.80;;;6.40;99.90;;;;;;4991537;28;20215;-41
2023/04/15 05:07:21;;;;;;;6.00;3.42;;;6.50;99.90;;;;;;4991621;28;20572;-41
2023/04/15 05:09:46;;;;;;;6.78;3.60;;;6.50;99.90;;;;;;4991500;28;20716;-41
2023/04/15 05:12:13;;;;;;;7.28;3.83;;;6.50;99.90;;;;;;4977115;28;20173;-41
2023/04/15 05:14:40;;;;;;;9.05;4.40;;;6.60;99.90;;;;;;4981623;28;20184;-41
2023/04/15 05:17:06;;;;;;;5.32;3.30;;;6.50;99.90;;;;;;4991669;28;20204;-41
2023/04/15 05:19:32;;;;;;;6.25;3.58;;;6.60;99.90;;;;;;4991660;28;20621;-41
2023/04/15 05:21:57;;;;;;;5.43;3.25;;;6.50;99.90;;;;;;4991452;28;20180;-41
2023/04/15 05:24:23;;;;;;;6.00;3.75;;;6.50;99.90;;;;;;4975533;28;20217;-41
2023/04/15 05:26:49;;;;;;;8.82;3.63;;;;;;;;;;4957728;28;20170;-40
2023/04/15 05:29:15;;;;;;;9.50;5.25;;;6.40;99.90;;;;;;4952957;28;20170;-40
2023/04/15 05:31:40;;;;;;;10.48;4.15;;;;;;;;;;4978884;28;20172;-41
2023/04/15 05:34:06;;;;;;;13.02;4.40;;;6.30;99.90;;;;;;4990610;28;20169;-40
2023/04/15 05:36:32;;;;;;;7.00;3.53;;;;;;;;;;4988997;28;20173;-40
2023/04/15 05:38:58;;;;;;;5.03;3.33;;;6.50;99.90;;;;;;4974164;28;20165;-41
2023/04/15 05:41:24;;;;;;;5.72;3.60;;;;;;;;;;4989836;28;20177;-41
2023/04/15 05:43:49;;;;;;;6.78;3.85;;;6.60;99.90;;;;;;4989424;28;20211;-41
2023/04/15 05:46:15;;;;;;;7.38;3.63;;;6.80;99.90;;;;;;4980973;28;20186;-41
2023/04/15 05:48:43;;;;;;;6.00;3.65;;;6.90;99.90;;;;;;4969881;28;20170;-42
2023/04/15 05:51:09;;;;;;;6.78;3.83;;;;;;;;;;4969973;28;20637;-42
2023/04/15 05:53:35;;;;;;;6.65;4.60;;;7.00;99.90;;;;;;4970255;28;20207;-41
2023/04/15 05:56:01;;;;;;;7.95;4.28;;;7.10;99.90;;;;;;4970229;28;20625;-43
2023/04/15 05:58:27;;;;;;;8.02;4.57;;;;;;;;;;4974325;28;20591;-42
2023/04/15 06:00:52;;;;;;;7.07;4.88;;;7.40;99.90;;;;;;4989171;28;20180;-42
2023/04/15 06:03:18;;;;;;;8.80;5.28;;;7.60;99.90;;;;;;4984556;28;20178;-42
2023/04/15 06:05:44;;;;;;;12.20;5.22;;;7.80;99.90;;;;;;4969641;28;20211;-42
2023/04/15 06:08:10;;;;;;;15.95;5.63;;;7.80;99.90;;;;;;4969524;28;20217;-44
2023/04/15 06:10:36;;;;;;;15.98;6.47;;;;;;;;;;4969619;28;20226;-42
2023/04/15 06:13:05;;;;;;;13.38;6.60;;;;;;;;;;4979957;28;20179;-42
2023/04/15 06:15:31;;;;;;;12.93;6.85;;;;;;;;;;4973544;28;20178;-42
2023/04/15 06:17:57;;;;;;;13.63;5.82;;;8.20;99.90;;;;;;4988663;28;20203;-43
2023/04/15 06:20:22;;;;;;;12.35;5.32;;;8.10;99.90;;;;;;4988923;28;20218;-43
2023/04/15 06:22:48;;;;;;;9.30;5.30;;;8.00;99.90;;;;;;4987568;28;20173;-44
2023/04/15 06:25:14;;;;;;;11.10;5.10;;;8.20;99.90;;;;;;4988911;28;20704;-43
2023/04/15 06:27:40;;;;;;;7.78;4.68;;;;;;;;;;4988528;28;20168;-43
2023/04/15 06:30:07;;;;;;;9.57;4.72;;;;;;;;;;4970808;28;20181;-43
2023/04/15 06:32:33;;;;;;;9.57;5.22;;;;;;;;;;4969697;28;20176;-43
2023/04/15 06:34:59;;;;;;;9.82;5.68;;;8.60;99.90;;;;;;4969573;28;20177;-43
2023/04/15 06:37:25;;;;;;;12.65;5.97;;;;;;;;;;4969385;28;20184;-43
2023/04/15 06:39:51;;;;;;;10.68;5.47;;;;;;;;;;4969232;28;20178;-43
2023/04/15 06:42:17;;;;;;;9.50;5.32;;;;;;;;;;4969052;28;20172;-42
2023/04/15 06:44:42;;;;;;;14.07;6.75;;;9.10;99.90;;;;;;4969008;28;20216;-43
2023/04/15 06:47:08;;;;;;;10.20;5.40;;;;;;;;;;4968153;28;20169;-43
2023/04/15 06:49:34;;;;;;;12.10;6.55;;;;;;;;;;4969455;28;20181;-42
2023/04/15 06:52:00;;;;;;;12.02;6.88;;;9.10;99.90;;;;;;4969763;28;20204;-44
2023/04/15 06:54:26;;;;;;;16.80;7.13;;;9.20;99.90;;;;;;4969011;28;20169;-42
2023/04/15 06:56:52;;;;;;;15.38;5.97;;;9.30;99.90;;;;;;4968880;28;20177;-42
2023/04/15 06:59:17;;;;;;;11.25;6.75;;;9.30;99.90;;;;;;4982353;28;20184;-43
2023/04/15 07:01:43;;;;;;;8.38;6.13;;;9.40;99.90;;;;;;4988432;28;20188;-47
2023/04/15 07:04:09;;;;;;;9.63;6.47;;;9.60;99.90;;;;;;4987258;28;20219;-44
2023/04/15 07:06:35;;;;;;;9.60;6.20;;;;;;;;;;4988125;28;20698;-44
2023/04/15 07:09:02;;;;;;;9.85;7.18;;;9.50;99.90;;;;;;4988454;28;20228;-44
2023/04/15 07:11:27;;;;;;;10.38;7.18;;;9.60;99.90;;;;;;4988055;28;20161;-46
2023/04/15 07:13:53;;;;;;;9.30;6.43;;;;;;;;;;4988236;28;20574;-48
2023/04/15 07:16:20;;;;;;;11.25;7.43;;;;;;;;;;4988289;28;20208;-46
2023/04/15 07:18:45;;;;;;;15.65;8.57;;;10.00;99.90;;;;;;4987576;28;20409;-50
2023/04/15 07:21:11;;;;;;;11.38;6.70;;;10.10;99.90;;;;;;4988067;28;20196;-45
2023/04/15 07:23:37;;;;;;;9.30;7.20;;;10.20;99.90;;;;;;4987975;28;20215;-47
2023/04/15 07:26:03;;;;;;;10.38;7.35;;;;;;;;;;4988499;28;20172;-45
2023/04/15 07:28:28;;;;;;;10.35;7.72;;;10.40;99.90;;;;;;4980747;28;20546;-45
2023/04/15 07:30:56;;;;;;;12.90;7.63;;;;;;;;;;4968500;28;20234;-48
2023/04/15 07:33:22;;;;;;;13.40;8.27;;;;;;;;;;4968578;28;20641;-45
2023/04/15 07:35:48;;;;;;;13.80;7.72;;;;;;;;;;4968476;28;20544;-48
2023/04/15 07:38:14;;;;;;;12.27;7.32;;;;;;;;;;4969076;28;20169;-46
2023/04/15 07:40:41;;;;;;;12.57;8.15;;;10.80;99.90;;;;;;4969997;28;20261;-47
2023/04/15 07:43:07;;;;;;;11.45;6.97;;;10.90;99.90;;;;;;4970047;28;20205;-44
2023/04/15 07:45:34;;;;;;;11.20;7.80;;;11.20;99.90;;;;;;4970346;28;20213;-49
2023/04/15 07:48:00;;;;;;;11.13;7.60;;;11.10;99.90;;;;;;4969989;28;20173;-44
2023/04/15 07:50:26;;;;;;;11.43;7.20;;;11.30;99.90;;;;;;4969968;28;20186;-47
2023/04/15 07:52:52;;;;;;;12.27;6.85;;;11.20;99.90;;;;;;4968392;28;20186;-47
2023/04/15 07:55:20;;;;;;;12.13;7.25;;;11.40;99.90;;;;;;4969727;28;20180;-44
2023/04/15 07:57:46;;;;;;;9.35;6.47;;;11.50;99.90;;;;;;4972804;28;20184;-48
2023/04/15 08:00:12;;;;;;;9.35;5.88;;;11.40;99.90;;;;;;4982208;28;20231;-48
2023/04/15 08:02:39;;;;;;;8.00;5.70;;;11.50;99.90;;;;;;4969683;28;20174;-47
2023/04/15 08:05:06;;;;;;;8.10;6.00;;;11.60;99.90;;;;;;4970054;28;20295;-44
2023/04/15 08:07:31;;;;;;;6.32;5.68;;;11.80;99.90;;;;;;4969923;28;20166;-45
2023/04/15 08:09:57;;;;;;;9.00;6.10;;;11.90;99.90;;;;;;4969340;28;20685;-47
2023/04/15 08:12:23;;;;;;;9.68;7.75;;;11.90;99.90;;;;;;4969595;28;20170;-47
2023/04/15 08:14:49;;;;;;;13.38;8.23;;;12.20;99.90;;;;;;4969560;28;20177;-47
2023/04/15 08:17:15;;;;;;;10.52;7.32;;;12.00;99.90;;;;;;4969510;28;20272;-47
2023/04/15 08:19:41;;;;;;;14.38;7.50;;;;;;;;;;4969443;28;20278;-44
2023/04/15 08:22:07;;;;;;;10.80;7.35;;;12.20;99.90;;;;;;4969625;28;20166;-45
2023/04/15 08:24:33;;;;;;;11.45;8.25;;;12.30;99.90;;;;;;4969820;28;20208;-44
2023/04/15 08:26:59;;;;;;;5.95;4.60;;;12.50;99.90;;;;;;4969329;28;20170;-44
2023/04/15 08:29:24;;;;;;;3.38;3.08;;;12.60;99.90;;;;;;4968522;28;20233;-46
2023/04/15 08:31:50;;;;;;;7.90;2.90;;;12.40;99.90;;;;;;4969666;28;20181;-47
2023/04/15 08:34:17;;;;;;;4.00;2.92;;;12.30;99.90;;;;;;4969400;28;20180;-48
2023/04/15 08:36:42;;;;;;;4.05;2.70;;;12.30;99.90;;;;;;4969449;28;20212;-44
2023/04/15 08:39:08;;;;;;;4.10;2.70;;;12.20;99.90;;;;;;4969341;28;20194;-47
2023/04/15 08:41:40;;;;;;;3.05;2.60;;;12.10;99.90;;;;;;4969663;28;20219;-48
2023/04/15 08:44:06;;;;;;;3.50;3.10;;;;;;;;;;4969147;28;20205;-44
2023/04/15 08:46:35;;;;;;;5.82;3.50;;;12.40;99.90;;;;;;4969451;28;20173;-44
2023/04/15 08:49:03;;;;;;;4.97;3.03;;;12.10;99.90;;;;;;4969417;28;20660;-44
2023/04/15 08:51:29;;;;;;;5.75;3.70;;;12.40;99.90;;;;;;4969385;28;20169;-45
2023/04/15 08:53:55;;;;;;;3.88;3.13;;;12.30;99.90;;;;;;4968964;28;20654;-44
2023/04/15 08:56:25;;;;;;;4.47;2.90;;;12.40;99.90;;;;;;4969139;28;20209;-45
2023/04/15 08:58:51;;;;;;;4.30;2.50;;;12.30;99.90;;;;;;4980232;28;20636;-45
2023/04/15 09:01:17;;;;;;;2.50;2.30;;;12.30;99.90;;;;;;4988509;28;20165;-44
2023/04/15 09:03:43;;;;;;;4.97;2.60;;;;;;;;;;4988230;28;20173;-43
2023/04/15 09:06:10;;;;;;;3.00;2.42;;;12.60;99.90;;;;;;4988235;28;20536;-44
2023/04/15 09:08:36;;;;;;;4.22;2.47;;;12.70;99.90;;;;;;4988379;28;20227;-44
2023/04/15 09:11:02;;;;;;;2.55;2.35;;;12.90;99.90;;;;;;4991278;28;20176;-44
2023/04/15 09:13:29;;;;;;;4.88;2.83;;;12.80;99.90;;;;;;4991757;28;20177;-43
2023/04/15 09:15:56;;;;;;;2.83;2.25;;;;;;;;;;4991872;28;20526;-44
2023/04/15 09:18:30;;;;;;;4.55;2.78;;;13.20;99.90;;;;;;4991620;28;20173;-44
2023/04/15 09:20:56;;;;;;;4.40;2.90;;;;;;;;;;4991438;28;20169;-46
2023/04/15 09:23:22;;;;;;;6.63;3.65;;;13.10;99.90;;;;;;4991322;28;20177;-44
2023/04/15 09:25:48;;;;;;;3.13;2.67;;;13.10;99.90;;;;;;4991263;28;20265;-44
2023/04/15 09:28:14;;;;;;;2.85;2.60;;;13.40;99.90;;;;;;4981950;28;20584;-44
2023/04/15 09:30:44;;;;;;;3.83;3.38;;;13.40;99.90;;;;;;4971625;28;20209;-44
2023/04/15 09:33:13;;;;;;;5.38;3.63;;;13.40;99.90;;;;;;4971708;28;20174;-45
2023/04/15 09:35:39;;;;;;;5.05;3.38;;;13.70;99.90;;;;;;4971583;28;20205;-43
2023/04/15 09:38:06;;;;;;;6.80;3.28;;;;;;;;;;4972037;28;20205;-45
2023/04/15 09:40:40;;;;;;;6.22;3.28;;;13.40;99.90;;;;;;4972175;28;20172;-43
2023/04/15 09:43:07;;;;;;;5.38;3.50;;;13.50;99.90;;;;;;4952655;28;20173;-44
2023/04/15 09:45:34;;;;;;;6.60;3.80;;;13.60;99.90;;;;;;4952636;28;20206;-44
2023/04/15 09:48:19;;;;;;;3.90;3.47;;;13.60;99.90;;;;;;4952273;28;20174;-43
2023/04/15 09:50:45;;;;;;;5.75;3.92;;;13.50;99.90;;;;;;4952279;28;20178;-43
2023/04/15 09:53:15;;;;;;;7.90;4.82;;;13.60;99.90;;;;;;4952299;28;20175;-47
2023/04/15 09:55:50;;;;;;;4.13;3.70;;;13.80;99.90;;;;;;4952093;28;20252;-42
2023/04/15 09:58:25;;;;;;;8.23;3.88;;;14.00;99.90;;;;;;4970696;28;20180;-43
2023/04/15 10:00:51;;;;;;;4.55;3.60;;;;;;;;;;4990626;28;20192;-43
2023/04/15 10:03:26;;;;;;;6.05;3.80;;;14.00;99.90;;;;;;4990849;28;20226;-43
2023/04/15 10:05:54;;;;;;;4.63;4.10;;;13.80;99.90;;;;;;4987819;28;20216;-43
2023/04/15 10:08:22;;;;;;;4.80;4.30;;;13.80;99.90;;;;;;4971161;28;20213;-43
2023/04/15 10:10:51;;;;;;;5.88;4.25;;;13.90;99.90;;;;;;4971302;28;20242;-43
2023/04/15 10:13:22;;;;;;;5.35;2.45;;;14.00;99.90;;;;;;4971329;28;20176;-43
2023/04/15 10:15:59;;;;;;;2.58;2.10;;;14.20;99.90;;;;;;4970802;28;20482;-44
2023/04/15 10:18:26;;;;;;;2.65;2.20;;;14.40;99.90;;;;;;4971543;28;20166;-43
2023/04/15 10:20:52;;;;;;;2.15;1.95;;;;;;;;;;4970690;28;20176;-43
2023/04/15 10:23:19;;;;;;;4.28;2.17;;;14.60;99.90;;;;;;4970680;28;20180;-43
2023/04/15 10:25:46;;;;;;;3.88;2.60;;;14.60;99.90;;;;;;4969729;28;20679;-43
2023/04/15 10:28:12;;;;;;;3.30;2.05;;;;;;;;;;4970138;28;20203;-43
2023/04/15 10:30:38;;;;;;;3.53;3.10;;;14.70;99.90;;;;;;4970380;28;20178;-43
2023/04/15 10:33:05;;;;;;;3.25;2.90;;;;;;;;;;4969348;28;20174;-43
2023/04/15 10:35:33;;;;;;;3.10;2.80;;;14.80;99.90;;;;;;4970666;28;20297;-43
2023/04/15 10:37:59;;;;;;;5.25;3.30;;;14.70;99.90;;;;;;4970156;28;20165;-43
2023/04/15 10:40:27;;;;;;;6.65;3.05;;;14.80;99.90;;;;;;4970657;28;20252;-43
2023/04/15 10:42:55;;;;;;;6.25;3.63;;;14.70;99.90;;;;;;4970467;28;20178;-43
2023/04/15 10:45:21;;;;;;;4.80;3.25;;;14.60;99.90;;;;;;4970486;28;20215;-43
2023/04/15 10:47:53;;;;;;;4.43;3.08;;;14.60;99.90;;;;;;4970660;28;20248;-43
2023/04/15 10:50:18;;;;;;;6.18;3.30;;;14.40;99.90;;;;;;4970650;28;20627;-43
2023/04/15 10:52:44;;;;;;;5.40;3.28;;;14.40;99.90;;;;;;4970575;28;20189;-43
2023/04/15 10:55:10;;;;;;;3.67;3.33;;;;;;;;;;4970588;28;20169;-43
2023/04/15 10:57:40;;;;;;;5.80;3.47;;;14.10;99.90;;;;;;4975647;28;20540;-43
2023/04/15 11:00:13;;;;;;;8.07;4.10;;;14.40;99.90;;;;;;4989799;28;20204;-43
2023/04/15 11:02:43;;;;;;;5.47;3.60;;;14.30;99.90;;;;;;4990132;28;20172;-43
2023/04/15 11:05:10;;;;;;;6.10;4.00;;;14.40;99.90;;;;;;4989703;28;20200;-43
2023/04/15 11:07:45;;;;;;;4.72;4.18;;;14.60;99.90;;;;;;4988632;28;20177;-43
2023/04/15 11:10:17;;;;;;;7.15;3.97;;;14.20;99.90;;;;;;4989572;28;20563;-43
2023/04/15 11:12:49;;;;;;;4.20;3.10;;;14.00;99.90;;;;;;4990100;28;20173;-43
2023/04/15 11:15:40;;;;;;;2.90;2.60;;;14.10;99.90;;;;;;4989719;28;20168;-43
2023/04/15 11:18:16;;;;;;;3.70;3.00;;;14.20;99.90;;;;;;4989742;28;20636;-44
2023/04/15 11:20:47;;;;;;;2.47;2.00;;;14.50;99.90;;;;;;4989965;28;20176;-43
2023/04/15 11:23:14;;;;;;;2.20;2.00;;;;;;;;;;4987657;28;20223;-43
2023/04/15 11:25:40;;;;;;;2.42;2.20;;;14.50;99.90;;;;;;4989791;28;20220;-42
2023/04/15 11:28:06;;;;;;;3.42;2.90;;;;;;;;;;4989743;28;20587;-44
2023/04/15 11:30:34;;;;;;;5.05;2.92;;;14.70;99.90;;;;;;4989841;28;20173;-43
2023/04/15 11:33:02;;;;;;;5.15;3.20;;;14.20;99.90;;;;;;4989465;28;20177;-44
2023/04/15 11:35:29;;;;;;;8.25;5.00;;;;;;;;;;4989409;28;20222;-44
2023/04/15 11:37:55;;;;;;;6.15;5.40;;;;;;;;;;4989333;28;20175;-44
2023/04/15 11:40:29;;;;;;;7.72;5.20;;;13.90;99.90;;;;;;4989482;28;20849;-43
2023/04/15 11:43:08;;;;;;;5.38;4.35;;;14.20;99.90;;;;;;4989253;28;20164;-44
2023/04/15 11:45:36;;;;;;;5.88;4.35;;;14.30;99.90;;;;;;4989549;28;20211;-44
2023/04/15 11:48:06;;;;;;;5.45;4.55;;;14.10;99.90;;;;;;4989616;28;20188;-44
2023/04/15 11:50:32;;;;;;;5.88;5.38;;;14.10;99.90;;;;;;4989529;28;20708;-43
2023/04/15 11:53:03;;;;;;;5.97;5.50;;;14.20;99.90;;;;;;4958501;28;20265;-43
2023/04/15 11:55:29;;;;;;;5.95;5.38;;;14.20;99.90;;;;;;4950535;29;20185;-43
2023/04/15 11:58:14;;;;;;;6.82;6.18;;;14.20;99.90;;;;;;4950437;29;20166;-43
2023/04/15 12:00:40;;;;;;;6.30;5.65;;;13.90;99.90;;;;;;4950709;28;20264;-43
2023/04/15 12:03:20;;;;;;;7.07;6.40;;;14.00;99.90;;;;;;4974966;28;20212;-43
2023/04/15 12:06:08;;;;;;;7.07;6.38;;;;;;;;;;4989290;28;20235;-43
2023/04/15 12:08:48;;;;;;;7.63;6.70;;;13.80;99.90;;;;;;4989473;28;20220;-45
2023/04/15 12:11:15;;;;;;;8.80;7.93;;;13.70;99.90;;;;;;4988979;28;20176;-44
2023/04/15 12:13:48;;;;;;;7.70;6.90;;;13.90;99.90;;;;;;4988854;28;20169;-43
2023/04/15 12:16:17;;;;;;;8.25;6.60;;;13.70;99.90;;;;;;4987728;28;20169;-44
2023/04/15 12:18:51;;;;;;;6.55;5.97;;;13.80;99.90;;;;;;4989040;28;20168;-43
2023/04/15 12:21:19;;;;;;;8.48;7.68;;;14.00;99.90;;;;;;4984343;28;20237;-44
2023/04/15 12:23:55;;;;;;;8.07;7.32;;;14.20;99.90;;;;;;4969459;28;20184;-43
2023/04/15 12:26:57;;;;;;;6.70;6.10;;;13.90;99.90;;;;;;4969882;28;20238;-44
2023/04/15 12:29:27;;;;;;;4.15;3.75;;;14.00;99.90;;;;;;4969566;28;20184;-46
2023/04/15 12:31:58;;;;;;;4.22;3.70;;;13.90;99.90;;;;;;4969310;28;20219;-43
2023/04/15 12:34:26;;;;;;;4.18;3.42;;;13.90;99.90;;;;;;4969273;28;20165;-45
2023/04/15 12:36:52;;;;;;;3.97;3.67;;;13.70;99.90;;;;;;4969594;28;20256;-47
2023/04/15 12:39:22;;;;;;;3.58;3.28;;;13.70;99.90;;;;;;4969172;28;20213;-44
2023/04/15 12:41:48;;;;;;;3.90;3.50;;;;;;;;;;4967935;28;20306;-45
2023/04/15 12:44:13;;;;;;;4.65;3.75;;;13.80;99.90;;;;;;4969233;28;20225;-43
2023/04/15 12:46:40;;;;;;;3.80;3.25;;;13.70;99.90;;;;;;4972600;28;20169;-43
2023/04/15 12:49:06;;;;;;;4.25;3.40;;;13.60;99.90;;;;;;4972723;28;20334;-43
2023/04/15 12:51:32;;;;;;;4.15;3.10;;;13.60;99.90;;;;;;4978898;28;20203;-43
2023/04/15 12:53:57;;;;;;;5.25;3.00;;;13.50;99.90;;;;;;4991515;28;20173;-46
2023/04/15 12:56:23;;;;;;;3.30;3.00;;;13.30;99.90;;;;;;4991790;28;20229;-44
2023/04/15 12:58:49;;;;;;;4.95;3.80;;;13.20;99.90;;;;;;4992157;28;20179;-43
2023/04/15 13:01:14;;;;;;;4.03;3.67;;;13.10;99.90;;;;;;4991828;28;20644;-42
2023/04/15 13:03:40;;;;;;;4.05;3.65;;;13.10;99.90;;;;;;4991863;28;20172;-44
2023/04/15 13:06:05;;;;;;;6.40;3.90;;;12.90;99.90;;;;;;4991664;28;20612;-43
2023/04/15 13:08:31;;;;;;;4.57;3.60;;;12.70;99.90;;;;;;4991806;28;20689;-43
2023/04/15 13:10:57;;;;;;;4.28;3.60;;;12.70;99.90;;;;;;4991681;28;20169;-44